Laie, Hawaii
Current Conditions -  °F | °C
As of 8:58 PM on Thursday 23 Oct 2014 (Local Time) from PHHI Reporting Station
Clear Clear  
Wind Chill: 74°   Ceiling: Unl
Heat Index: 74°   Visibility: 10mi
Dew Point: 67°   Wind: 10mph
Humidity: 79%   Direction: 40°NE
Pressure: 30.08"   Gusts: NA
Location:  21.65°N, 157.92°W
Report Text: PHHI 240658Z AUTO 04009KT 10SM CLR 23/20 A3008 RMK AO2 RAB0611E0622 SLP175 P0000 T02330195 $
Loading
Personal Weather Stations






























Interactive Weather Map
Tropical Storm Tracking
New forecast layout! Learn more

10-Day Weather Forecast

Advertisements
Track Severe Weather on mobile